Time;durP1;ratioP1;P1;durP2;ratioP2;P2;SDS_P1;SDS_P2;PMS_P1;PMS_P2;Temp;Humidity;BMP_temperature;BMP_pressure;BME280_temperature;BME280_humidity;BME280_pressure;Samples;Min_cycle;Max_cycle;Signal;HPM_P1;HPM_P2
2022/05/04 00:00:24;;;;;;;14.73;7.03;;;;;;;8.33;76.31;101862.09;1031522;28;20313;-79
2022/05/04 00:00:56;;;;;;;12.93;5.70;;;;;;;8.34;75.74;101855.81;1036140;28;20296;-80
2022/05/04 00:01:27;;;;;;;14.20;6.50;;;;;;;8.35;76.29;101868.91;1035032;28;20312;-79
2022/05/04 00:01:59;;;;;;;13.55;6.47;;;;;;;8.29;76.58;101863.47;1035581;28;20312;-79
2022/05/04 00:02:31;;;;;;;13.48;6.72;;;;;;;8.39;77.07;101873.88;1031481;28;20398;-80
2022/05/04 00:03:03;;;;;;;12.85;7.15;;;;;;;8.32;76.65;101866.59;1031310;28;20776;-79
2022/05/04 00:03:39;;;;;;;9.68;6.07;;;;;;;8.33;78.34;101875.38;1035287;28;20296;-79
2022/05/04 00:04:10;;;;;;;19.50;7.43;;;;;;;8.34;77.96;101877.88;1031503;28;20297;-80
2022/05/04 00:04:42;;;;;;;15.07;6.90;;;;;;;8.47;78.38;101876.47;1034500;28;20890;-79
2022/05/04 00:05:13;;;;;;;21.20;8.18;;;;;;;8.53;78.91;101875.78;1030865;28;20300;-79
2022/05/04 00:05:45;;;;;;;15.68;6.95;;;;;;;8.46;78.87;101875.63;1030389;28;20312;-79
2022/05/04 00:06:17;;;;;;;25.67;9.13;;;;;;;8.30;78.14;101871.25;1035158;28;20296;-80
2022/05/04 00:06:48;;;;;;;16.08;7.60;;;;;;;8.26;77.91;101874.44;1035857;28;20676;-80
2022/05/04 00:07:20;;;;;;;14.30;7.50;;;;;;;8.35;79.07;101874.22;1035419;28;20301;-79
2022/05/04 00:07:52;;;;;;;11.35;6.85;;;;;;;8.37;78.66;101876.69;1035129;28;20379;-80
2022/05/04 00:08:23;;;;;;;19.08;7.32;;;;;;;8.39;78.88;101873.88;1035104;28;20303;-79
2022/05/04 00:08:55;;;;;;;15.52;7.35;;;;;;;8.40;79.21;101880.81;1031546;28;20348;-80
2022/05/04 00:09:27;;;;;;;12.23;6.55;;;;;;;8.29;79.67;101884.69;1034985;28;20308;-79
2022/05/04 00:09:58;;;;;;;16.63;6.70;;;;;;;8.30;79.53;101889.81;1031170;28;20358;-79
2022/05/04 00:10:31;;;;;;;19.63;7.60;;;;;;;8.26;78.70;101877.09;1031823;28;20337;-79
2022/05/04 00:11:02;;;;;;;14.68;6.95;;;;;;;8.26;79.91;101883.22;1031039;28;20305;-79
2022/05/04 00:11:34;;;;;;;14.10;7.13;;;;;;;8.22;80.67;101887.22;1027905;28;20685;-79
2022/05/04 00:12:06;;;;;;;19.92;7.43;;;;;;;8.30;80.34;101881.88;1027358;28;20294;-79
2022/05/04 00:12:38;;;;;;;13.38;6.95;;;;;;;8.40;81.04;101881.66;1027526;28;20345;-80
2022/05/04 00:13:10;;;;;;;14.32;7.53;;;;;;;8.23;80.71;101878.25;1019111;29;20304;-79
2022/05/04 00:13:41;;;;;;;17.90;7.28;;;;;;;8.36;80.50;101883.84;1019863;29;20299;-80
2022/05/04 00:14:13;;;;;;;16.27;7.55;;;;;;;8.24;80.10;101882.56;1019723;29;20310;-80
2022/05/04 00:14:44;;;;;;;7.80;6.05;;;;;;;8.24;79.65;101887.88;1020613;28;20365;-79
2022/05/04 00:15:16;;;;;;;10.45;7.43;;;;;;;8.28;80.25;101878.56;1022856;28;21066;-79
2022/05/04 00:15:47;;;;;;;13.93;7.07;;;;;;;8.27;80.45;101886.69;1023596;28;20302;-79
2022/05/04 00:16:19;;;;;;;14.52;6.28;;;;;;;8.18;80.17;101885.91;1027751;28;20324;-79
2022/05/04 00:16:52;;;;;;;14.43;6.28;;;;;;;8.05;81.10;101877.69;1032174;28;20691;-79
2022/05/04 00:17:24;;;;;;;17.77;7.25;;;;;;;8.07;81.36;101881.00;1035225;28;20315;-79
2022/05/04 00:17:55;;;;;;;17.00;6.20;;;;;;;8.22;81.98;101881.09;1030978;28;20783;-79
2022/05/04 00:18:28;;;;;;;18.10;7.22;;;;;;;8.15;82.03;101883.59;1031488;28;20293;-79
2022/05/04 00:18:59;;;;;;;11.85;6.90;;;;;;;8.07;81.45;101881.81;1031748;28;20312;-80
2022/05/04 00:19:31;;;;;;;14.18;6.45;;;;;;;8.29;81.24;101885.53;1035545;28;20308;-79
2022/05/04 00:20:03;;;;;;;16.55;7.10;;;;;;;8.36;81.52;101880.34;1035476;28;20707;-80
2022/05/04 00:20:35;;;;;;;13.95;6.30;;;;;;;8.38;80.05;101882.84;1035159;28;20832;-80
2022/05/04 00:21:07;;;;;;;16.98;7.18;;;;;;;8.35;79.73;101879.53;1034974;28;20305;-79
2022/05/04 00:21:39;;;;;;;12.20;6.03;;;;;;;8.38;79.96;101877.53;1036203;28;20790;-80
2022/05/04 00:22:10;;;;;;;15.82;6.28;;;;;;;8.33;79.45;101876.22;1038875;28;20311;-79
2022/05/04 00:22:43;;;;;;;14.88;6.63;;;;;;;8.32;79.88;101876.38;1035131;28;20561;-80
2022/05/04 00:23:15;;;;;;;11.32;6.05;;;;;;;8.34;80.38;101880.53;1035573;28;20727;-79
2022/05/04 00:23:46;;;;;;;12.63;6.15;;;;;;;8.41;80.66;101878.00;1030885;28;20752;-79
2022/05/04 00:24:20;;;;;;;14.88;6.18;;;;;;;8.32;79.82;101879.84;1027730;28;20365;-80
2022/05/04 00:24:51;;;;;;;14.63;6.53;;;;;;;8.01;81.40;101887.00;1031287;28;20309;-79
2022/05/04 00:25:23;;;;;;;12.77;6.10;;;;;;;7.97;81.48;101891.00;1029916;28;20302;-79
2022/05/04 00:25:54;;;;;;;11.85;5.70;;;;;;;7.94;81.52;101886.03;1031576;28;20309;-79
2022/05/04 00:26:26;;;;;;;12.50;6.05;;;;;;;8.17;82.03;101891.38;1031473;28;20297;-80
2022/05/04 00:26:57;;;;;;;18.20;6.60;;;;;;;8.07;81.80;101881.00;1028742;28;20629;-79
2022/05/04 00:27:29;;;;;;;10.07;5.22;;;;;;;8.20;81.95;101886.56;1027181;28;20317;-81
2022/05/04 00:28:02;;;;;;;15.18;5.47;;;;;;;8.21;82.18;101888.19;1031953;28;20448;-80
2022/05/04 00:28:34;;;;;;;9.77;6.25;;;;;;;8.17;81.80;101886.06;1035577;28;20779;-75
2022/05/04 00:29:05;;;;;;;14.82;6.07;;;;;;;8.24;81.07;101882.56;1035974;28;20387;-75
2022/05/04 00:29:37;;;;;;;11.50;6.00;;;;;;;8.24;79.75;101881.75;1039926;28;20296;-76
2022/05/04 00:30:09;;;;;;;12.60;5.15;;;;;;;8.25;79.43;101873.59;1039861;28;20296;-76
2022/05/04 00:30:40;;;;;;;10.90;5.30;;;;;;;8.31;78.43;101877.38;1039427;28;20303;-75
2022/05/04 00:31:12;;;;;;;12.93;5.38;;;;;;;8.32;77.75;101866.59;1031385;28;20333;-75
2022/05/04 00:31:44;;;;;;;14.38;4.85;;;;;;;8.32;78.73;101868.41;1031406;28;20332;-76
2022/05/04 00:32:17;;;;;;;10.82;5.07;;;;;;;8.31;77.44;101866.75;1031136;28;20788;-76
2022/05/04 00:32:49;;;;;;;11.05;5.82;;;;;;;8.36;77.94;101869.75;1024771;28;20381;-76
2022/05/04 00:33:20;;;;;;;7.65;4.93;;;;;;;8.34;77.59;101872.56;1027408;28;20692;-76
2022/05/04 00:33:52;;;;;;;10.07;5.72;;;;;;;8.33;78.05;101870.91;1030112;28;20366;-75
2022/05/04 00:34:24;;;;;;;11.60;5.88;;;;;;;8.38;79.29;101872.22;1036372;28;20363;-75
2022/05/04 00:34:55;;;;;;;12.13;5.55;;;;;;;8.28;78.61;101870.59;1043890;28;20279;-75
2022/05/04 00:35:27;;;;;;;14.15;5.28;;;;;;;8.30;77.72;101873.91;1043704;28;20314;-76
2022/05/04 00:35:58;;;;;;;14.25;5.88;;;;;;;8.32;77.94;101874.56;1043471;28;20306;-76
2022/05/04 00:36:31;;;;;;;14.27;5.70;;;;;;;8.31;77.97;101866.75;1043783;28;20349;-76
2022/05/04 00:37:03;;;;;;;19.08;5.45;;;;;;;8.36;77.29;101869.75;1040306;28;20350;-76
2022/05/04 00:37:34;;;;;;;9.20;6.60;;;;;;;8.25;78.40;101868.28;1040364;28;20300;-75
2022/05/04 00:38:06;;;;;;;11.13;5.43;;;;;;;8.23;77.45;101864.16;1041289;28;20318;-76
2022/05/04 00:38:38;;;;;;;13.27;6.20;;;;;;;8.23;77.19;101862.34;1040647;28;20304;-76
2022/05/04 00:39:09;;;;;;;10.38;5.57;;;;;;;8.27;78.10;101870.78;1044317;28;20337;-76
2022/05/04 00:39:41;;;;;;;14.27;6.15;;;;;;;8.29;77.20;101864.28;1044726;28;20295;-75
2022/05/04 00:40:12;;;;;;;12.20;5.68;;;;;;;8.23;77.25;101862.34;1040278;28;20304;-76
2022/05/04 00:40:44;;;;;;;13.65;6.07;;;;;;;8.16;77.35;101864.03;1044428;28;21071;-76
2022/05/04 00:41:15;;;;;;;14.23;6.93;;;;;;;8.20;77.80;101862.66;1044755;28;20649;-75
2022/05/04 00:41:47;;;;;;;11.07;5.53;;;;;;;8.24;78.07;101866.66;1044465;28;20302;-75
2022/05/04 00:42:21;;;;;;;12.40;5.78;;;;;;;8.22;77.41;101863.34;1044285;28;20377;-76
2022/05/04 00:42:52;;;;;;;12.27;6.13;;;;;;;8.20;77.29;101865.31;1040644;28;20782;-76
2022/05/04 00:43:25;;;;;;;15.15;6.22;;;;;;;8.25;77.15;101862.16;1036212;28;20300;-76
2022/05/04 00:43:57;;;;;;;15.35;5.55;;;;;;;8.23;77.34;101865.00;1037021;28;20387;-75
2022/05/04 00:44:28;;;;;;;12.25;5.32;;;;;;;8.19;76.99;101866.31;1041258;28;20663;-75
2022/05/04 00:47:16;;;;;;;9.15;4.65;;;;;;;8.20;77.03;101861.84;1042514;28;20275;-76
2022/05/04 00:47:48;;;;;;;15.77;5.45;;;;;;;8.16;77.71;101864.03;1044343;28;20389;-75
2022/05/04 00:48:20;;;;;;;13.90;4.90;;;;;;;8.12;77.72;101868.03;1044440;28;20303;-76
2022/05/04 00:48:51;;;;;;;12.55;5.03;;;;;;;8.05;77.58;101862.59;1036337;28;20289;-76
2022/05/04 00:49:23;;;;;;;12.02;5.28;;;;;;;8.07;77.90;101865.06;1036664;28;20817;-76
2022/05/04 00:50:13;;;;;;;14.38;4.75;;;;;;;8.08;77.71;101861.41;1040509;28;20275;-76
2022/05/04 00:50:46;;;;;;;16.00;5.40;;;;;;;8.16;77.25;101863.19;1036910;28;20706;-76
2022/05/04 00:51:19;;;;;;;11.77;5.25;;;;;;;8.14;77.25;101868.69;1043269;28;20295;-75
2022/05/04 00:51:50;;;;;;;9.63;5.18;;;;;;;8.11;77.39;101855.75;1044313;28;20512;-76
2022/05/04 00:52:22;;;;;;;18.52;5.28;;;;;;;8.15;76.89;101859.72;1040733;28;20308;-75
2022/05/04 00:52:54;;;;;;;16.40;6.13;;;;;;;8.01;77.29;101857.81;1040160;28;20303;-75
2022/05/04 00:53:26;;;;;;;13.60;4.88;;;;;;;8.05;76.98;101859.13;1036073;28;20300;-75
2022/05/04 00:53:57;;;;;;;19.80;5.25;;;;;;;8.04;77.75;101862.78;1036897;28;20296;-76
2022/05/04 00:54:29;;;;;;;13.15;5.75;;;;;;;8.12;78.04;101868.03;1040751;28;20865;-76
2022/05/04 00:55:02;;;;;;;15.02;5.57;;;;;;;8.06;78.11;101860.78;1040744;28;20406;-76
2022/05/04 00:55:34;;;;;;;9.40;5.90;;;;;;;8.11;78.28;101865.56;1044663;28;20306;-75
2022/05/04 00:56:09;;;;;;;7.85;5.30;;;;;;;8.14;77.71;101866.03;1040178;28;20308;-75
2022/05/04 00:56:40;;;;;;;18.60;6.72;;;;;;;8.05;77.64;101864.44;1041390;28;20300;-75
2022/05/04 00:57:14;;;;;;;7.85;5.25;;;;;;;8.06;77.15;101858.94;1044434;28;20295;-75
2022/05/04 00:58:56;;;;;;;15.00;6.38;;;;;;;8.02;77.36;101865.59;1044690;28;20310;-75
2022/05/04 00:59:29;;;;;;;12.38;5.57;;;;;;;8.10;77.98;101867.38;1044637;28;20505;-75
2022/05/04 01:00:01;;;;;;;10.07;5.80;;;;;;;8.05;76.86;101859.94;1044458;28;20295;-75
2022/05/04 01:00:32;;;;;;;12.23;4.38;;;;;;;7.98;77.55;101868.78;1040393;28;20296;-75
2022/05/04 01:01:07;;;;;;;12.15;4.95;;;;;;;8.02;77.63;101865.59;1040740;28;20311;-77
2022/05/04 01:01:38;;;;;;;8.48;5.55;;;;;;;8.06;77.30;101863.44;1037411;28;20311;-75
2022/05/04 01:02:10;;;;;;;11.85;4.72;;;;;;;7.94;78.10;101870.09;1041252;28;20323;-75
2022/05/04 01:02:42;;;;;;;11.90;6.07;;;;;;;7.93;77.83;101868.44;1040173;28;20805;-75
2022/05/04 01:03:14;;;;;;;14.25;5.43;;;;;;;8.00;77.41;101859.66;1042009;28;20704;-76
2022/05/04 01:03:46;;;;;;;13.20;6.32;;;;;;;8.02;77.97;101855.00;1041021;28;20308;-75
2022/05/04 01:04:18;;;;;;;14.63;5.60;;;;;;;8.03;77.42;101859.28;1044386;28;20307;-75
2022/05/04 01:04:50;;;;;;;13.60;6.15;;;;;;;8.05;77.34;101857.28;1044368;28;20690;-75
2022/05/04 01:05:21;;;;;;;20.75;5.47;;;;;;;8.06;77.37;101858.13;1044581;28;20295;-75
2022/05/04 01:05:53;;;;;;;19.85;6.13;;;;;;;8.00;76.86;101858.81;1044338;28;20302;-75
2022/05/04 01:06:26;;;;;;;15.65;5.40;;;;;;;8.00;78.25;101864.97;1040762;28;20308;-76
2022/05/04 01:06:57;;;;;;;13.95;6.72;;;;;;;8.03;77.97;101863.78;1044622;28;20300;-75
2022/05/04 01:07:29;;;;;;;19.05;5.90;;;;;;;8.01;77.69;101865.78;1035915;28;20810;-75
2022/05/04 01:08:00;;;;;;;14.98;5.65;;;;;;;7.99;77.89;101859.81;1036625;28;20370;-76
2022/05/04 01:08:32;;;;;;;18.08;5.88;;;;;;;7.90;78.48;101871.47;1036320;28;20303;-75
2022/05/04 01:09:04;;;;;;;16.83;5.50;;;;;;;7.90;78.46;101869.63;1027285;28;20823;-75
2022/05/04 01:09:36;;;;;;;9.07;4.88;;;;;;;7.94;78.69;101870.97;1034862;28;20448;-75
2022/05/04 01:10:09;;;;;;;10.45;5.13;;;;;;;7.86;78.20;101873.63;1037082;28;20356;-76
2022/05/04 01:10:40;;;;;;;12.15;5.60;;;;;;;7.87;78.11;101866.50;1036866;28;20292;-75
2022/05/04 01:11:12;;;;;;;11.77;5.95;;;;;;;7.93;78.01;101868.44;1040828;28;20635;-75
2022/05/04 01:11:46;;;;;;;11.88;4.88;;;;;;;7.89;77.93;101872.47;1044533;28;20784;-76
2022/05/04 01:12:22;;;;;;;16.48;4.95;;;;;;;7.86;78.44;101872.81;1044403;28;20473;-75
2022/05/04 01:12:54;;;;;;;16.70;6.13;;;;;;;7.87;79.21;101869.97;1044426;28;20376;-75
2022/05/04 01:13:25;;;;;;;12.75;5.78;;;;;;;7.91;79.60;101876.59;1039933;28;20705;-75
2022/05/04 01:14:02;;;;;;;11.80;6.95;;;;;;;7.86;80.12;101873.63;1036134;28;20309;-75
2022/05/04 01:14:33;;;;;;;13.23;5.97;;;;;;;7.89;79.29;101883.06;1037616;28;20281;-75
2022/05/04 01:15:05;;;;;;;11.23;5.60;;;;;;;7.88;78.81;101870.81;1040235;28;20296;-75
2022/05/04 01:15:37;;;;;;;20.23;6.22;;;;;;;7.87;77.75;101866.50;1041403;28;20308;-76
2022/05/04 01:16:09;;;;;;;17.00;6.50;;;;;;;7.84;78.50;101872.16;1040786;28;20426;-75
2022/05/04 01:16:43;;;;;;;11.45;6.05;;;;;;;7.88;78.24;101870.81;1040139;28;20288;-75
2022/05/04 01:17:14;;;;;;;11.85;5.65;;;;;;;7.89;77.39;101870.63;1036011;28;20387;-75
2022/05/04 01:17:47;;;;;;;15.43;6.22;;;;;;;7.88;77.40;101857.53;1036342;28;20714;-75
2022/05/04 01:18:20;;;;;;;14.50;5.25;;;;;;;7.87;77.21;101864.69;1032829;28;20791;-75
2022/05/04 01:18:51;;;;;;;12.95;5.68;;;;;;;7.88;77.59;101866.31;1036828;28;20699;-75
2022/05/04 01:19:23;;;;;;;13.30;5.88;;;;;;;7.89;77.62;101867.16;1040272;28;20288;-77
2022/05/04 01:19:55;;;;;;;16.83;5.85;;;;;;;7.84;77.46;101865.03;1040713;28;20303;-76
2022/05/04 01:20:27;;;;;;;10.85;7.05;;;;;;;7.84;77.87;101866.84;1044379;28;20800;-77
2022/05/04 01:20:59;;;;;;;12.80;5.45;;;;;;;7.74;78.25;101870.56;1044539;28;20303;-77
2022/05/04 01:21:30;;;;;;;10.20;5.97;;;;;;;7.73;78.67;101868.06;1042061;28;20442;-76
2022/05/04 01:22:03;;;;;;;15.77;6.10;;;;;;;7.71;78.39;101870.91;1044536;28;20322;-76
2022/05/04 01:22:39;;;;;;;20.30;5.57;;;;;;;7.77;78.00;101866.72;1044480;28;20307;-76
2022/05/04 01:23:10;;;;;;;8.38;6.10;;;;;;;7.80;79.63;101876.16;1040384;28;20287;-76
2022/05/04 01:23:42;;;;;;;11.68;5.75;;;;;;;7.78;79.14;101870.19;1040024;28;20335;-76
2022/05/04 01:24:14;;;;;;;10.93;5.93;;;;;;;7.73;78.96;101868.91;1040034;28;20781;-76
2022/05/04 01:24:45;;;;;;;12.65;5.15;;;;;;;7.78;78.28;101865.72;1040656;28;20284;-76
2022/05/04 01:25:17;;;;;;;15.30;6.20;;;;;;;7.79;78.29;101866.53;1044557;28;20307;-76
2022/05/04 01:25:53;;;;;;;11.32;6.13;;;;;;;7.78;78.28;101864.91;1044294;28;20307;-76
2022/05/04 01:26:25;;;;;;;10.48;6.03;;;;;;;7.77;78.43;101869.38;1040211;28;21681;-75
2022/05/04 01:26:57;;;;;;;10.75;5.55;;;;;;;7.77;77.97;101868.56;1040323;28;20315;-76
2022/05/04 01:27:28;;;;;;;16.00;6.78;;;;;;;7.79;78.51;101863.91;1041376;28;20721;-76
2022/05/04 01:28:01;;;;;;;13.00;5.63;;;;;;;7.77;77.62;101857.94;1044497;28;20299;-76
2022/05/04 01:28:33;;;;;;;12.02;5.30;;;;;;;7.72;78.44;101867.25;1042367;28;20702;-79
2022/05/04 01:29:05;;;;;;;16.38;5.40;;;;;;;7.71;79.01;101876.19;1044419;28;20820;-80
2022/05/04 01:29:37;;;;;;;17.48;5.82;;;;;;;7.80;79.99;101873.50;1044502;28;20291;-80
2022/05/04 01:30:09;;;;;;;13.93;5.20;;;;;;;7.60;80.25;101875.72;1042004;28;20804;-80
2022/05/04 01:30:40;;;;;;;16.40;5.65;;;;;;;7.70;79.31;101874.56;1044321;28;20303;-80
2022/05/04 01:31:12;;;;;;;11.65;5.22;;;;;;;7.70;80.30;101879.03;1044095;28;20997;-80
2022/05/04 01:31:44;;;;;;;11.43;5.57;;;;;;;7.73;80.37;101879.50;1044323;28;20291;-80
2022/05/04 01:32:15;;;;;;;14.80;6.50;;;;;;;7.69;79.37;101878.19;1043771;28;20311;-80
2022/05/04 01:32:47;;;;;;;14.75;6.50;;;;;;;7.63;79.57;101868.25;1040026;28;20680;-80
2022/05/04 01:33:19;;;;;;;10.02;5.32;;;;;;;7.77;80.33;101879.16;1040662;28;20292;-80
2022/05/04 01:33:51;;;;;;;11.05;5.72;;;;;;;7.71;80.47;101881.50;1043437;28;20310;-80
2022/05/04 01:34:26;;;;;;;14.75;6.20;;;;;;;7.74;79.96;101867.91;1043964;28;20311;-80
2022/05/04 01:34:58;;;;;;;11.57;5.88;;;;;;;7.67;79.90;101872.25;1044095;28;20298;-80
2022/05/04 01:35:30;;;;;;;12.25;5.55;;;;;;;7.72;80.60;101869.91;1043987;28;20295;-80
2022/05/04 01:36:02;;;;;;;18.05;5.50;;;;;;;7.57;80.68;101874.25;1039778;28;20307;-80
2022/05/04 01:36:34;;;;;;;13.93;5.32;;;;;;;7.65;81.37;101878.69;1040153;28;20292;-80
2022/05/04 01:37:05;;;;;;;10.40;5.63;;;;;;;7.64;81.35;101875.22;1040023;28;20662;-80
2022/05/04 01:37:37;;;;;;;9.07;5.47;;;;;;;7.51;82.10;101880.25;1040423;28;20288;-80
2022/05/04 01:38:08;;;;;;;12.40;5.85;;;;;;;7.57;82.39;101879.56;1044308;28;20383;-80
2022/05/04 01:38:40;;;;;;;12.15;5.18;;;;;;;7.63;82.16;101884.16;1044629;28;20812;-80
2022/05/04 01:39:11;;;;;;;12.82;5.80;;;;;;;7.72;82.21;101877.84;1044025;28;20311;-76
2022/05/04 01:39:43;;;;;;;13.75;7.20;;;;;;;7.62;82.13;101874.56;1044737;28;20295;-76
2022/05/04 01:40:14;;;;;;;33.17;6.25;;;;;;;7.65;81.81;101876.03;1044494;28;20318;-76
2022/05/04 01:40:46;;;;;;;178.20;21.88;;;;;;;7.61;80.96;101872.91;1044481;28;20299;-76
2022/05/04 01:42:15;;;;;;;71.85;11.95;;;;;;;7.69;81.72;101874.72;1044175;28;20433;-76
2022/05/04 01:42:47;;;;;;;24.92;6.50;;;;;;;7.66;82.29;101877.69;1044003;28;20303;-76
2022/05/04 01:43:19;;;;;;;23.08;6.53;;;;;;;7.70;82.51;101874.56;1044252;28;20295;-76
2022/05/04 01:43:51;;;;;;;49.47;10.25;;;;;;;7.71;80.82;101870.06;1044340;28;20808;-76
2022/05/04 01:44:22;;;;;;;118.55;11.82;;;;;;;7.61;80.24;101870.25;1038336;28;20320;-76
2022/05/04 01:44:54;;;;;;;110.50;13.57;;;;;;;7.61;80.19;101862.28;1044255;28;20665;-76
2022/05/04 01:45:25;;;;;;;89.88;13.65;;;;;;;7.65;79.83;101860.94;1040093;28;20820;-76
2022/05/04 01:45:57;;;;;;;68.85;12.48;;;;;;;7.65;79.20;101855.66;1040427;28;20323;-76
2022/05/04 01:46:29;;;;;;;87.65;11.70;;;;;;;7.67;79.08;101856.34;1044108;28;20297;-77
2022/05/04 01:47:01;;;;;;;103.13;13.57;;;;;;;7.62;79.28;101853.34;1044400;28;20310;-76
2022/05/04 01:47:32;;;;;;;50.58;10.73;;;;;;;7.57;79.41;101858.34;1041914;28;20355;-76
2022/05/04 01:48:04;;;;;;;38.67;8.05;;;;;;;7.52;79.83;101865.97;1043765;28;20303;-76
2022/05/04 01:48:36;;;;;;;20.58;6.18;;;;;;;7.61;80.16;101864.13;1043679;28;20299;-76
2022/05/04 01:49:07;;;;;;;36.35;8.43;;;;;;;7.56;80.82;101855.88;1044355;28;20291;-76
2022/05/04 01:49:39;;;;;;;25.90;7.53;;;;;;;7.41;81.24;101872.50;1044450;28;20298;-76
2022/05/04 01:50:10;;;;;;;34.17;8.40;;;;;;;7.23;82.54;101877.16;1043772;28;20303;-76
2022/05/04 01:50:42;;;;;;;27.40;7.43;;;;;;;7.36;82.38;101876.63;1044422;28;20298;-76
2022/05/04 01:51:14;;;;;;;34.90;8.40;;;;;;;7.43;82.93;101874.97;1039636;28;20299;-76
2022/05/04 01:51:45;;;;;;;26.48;7.63;;;;;;;7.52;82.56;101876.59;1040501;28;20315;-76
2022/05/04 01:52:17;;;;;;;20.13;7.07;;;;;;;7.62;82.41;101877.22;1036154;28;20312;-76
2022/05/04 01:52:48;;;;;;;18.67;6.78;;;;;;;7.50;82.43;101875.09;1036471;28;20296;-76
2022/05/04 01:53:20;;;;;;;14.65;6.45;;;;;;;7.47;81.96;101868.31;1040068;28;20307;-76
2022/05/04 01:53:51;;;;;;;16.73;6.72;;;;;;;7.37;81.75;101867.69;1040768;28;20686;-76
2022/05/04 01:54:23;;;;;;;10.50;5.13;;;;;;;7.42;81.32;101866.19;1044094;28;20685;-76
2022/05/04 01:54:55;;;;;;;14.07;6.38;;;;;;;7.49;80.43;101861.03;1044133;28;20688;-76
2022/05/04 01:55:27;;;;;;;12.38;5.95;;;;;;;7.51;80.99;101869.63;1040239;28;20300;-76
2022/05/04 01:56:01;;;;;;;12.48;6.80;;;;;;;7.50;80.43;101862.69;1040490;28;20793;-76
2022/05/04 01:56:33;;;;;;;15.65;6.20;;;;;;;7.51;80.40;101863.50;1044169;28;20357;-76
2022/05/04 01:57:05;;;;;;;19.10;5.72;;;;;;;7.53;80.21;101862.34;1041229;28;20276;-76
2022/05/04 01:57:36;;;;;;;11.23;6.20;;;;;;;7.40;80.15;101862.06;1044387;28;20306;-77
2022/05/04 01:58:11;;;;;;;12.50;6.55;;;;;;;7.46;80.61;101871.97;1039954;28;20318;-76
2022/05/04 01:58:43;;;;;;;13.27;6.72;;;;;;;7.38;81.24;101864.03;1040861;28;20303;-76
2022/05/04 01:59:14;;;;;;;14.43;6.00;;;;;;;7.26;81.99;101870.69;1044486;28;20276;-76
2022/05/04 01:59:50;;;;;;;8.77;6.22;;;;;;;7.36;81.57;101871.31;1041960;28;20295;-76
2022/05/04 02:00:22;;;;;;;14.95;6.60;;;;;;;7.41;81.79;101863.72;1043679;28;20382;-76
2022/05/04 02:00:54;;;;;;;14.75;6.00;;;;;;;7.44;81.67;101871.31;1040170;28;20307;-76
2022/05/04 02:01:25;;;;;;;9.98;6.10;;;;;;;7.44;81.67;101866.03;1037735;28;20300;-76
2022/05/04 02:01:58;;;;;;;10.20;5.85;;;;;;;7.39;81.25;101865.69;1040345;28;20308;-76
2022/05/04 02:02:29;;;;;;;12.48;5.70;;;;;;;7.37;81.07;101863.19;1040813;28;20315;-76
2022/05/04 02:03:01;;;;;;;10.88;5.25;;;;;;;7.41;80.41;101861.06;1044313;28;20299;-77
2022/05/04 02:03:34;;;;;;;13.90;5.93;;;;;;;7.52;80.60;101862.50;1044052;28;20759;-77
2022/05/04 02:04:06;;;;;;;12.55;5.28;;;;;;;7.35;81.35;101864.38;1039788;28;20677;-76
2022/05/04 02:04:38;;;;;;;8.55;5.05;;;;;;;7.35;81.67;101861.72;1036045;28;20790;-77
2022/05/04 02:05:10;;;;;;;11.23;5.10;;;;;;;7.37;81.76;101865.03;1033276;28;20308;-77
2022/05/04 02:05:41;;;;;;;14.52;5.88;;;;;;;7.43;82.12;101872.31;1036819;28;20957;-76
2022/05/04 02:06:14;;;;;;;12.95;6.35;;;;;;;7.50;81.87;101873.28;1044371;28;20299;-76
2022/05/04 02:06:46;;;;;;;11.50;5.43;;;;;;;7.48;82.24;101875.28;1044114;28;20310;-77
2022/05/04 02:07:20;;;;;;;16.05;6.53;;;;;;;7.42;81.16;101868.03;1040026;28;20300;-76
2022/05/04 02:07:51;;;;;;;11.77;5.72;;;;;;;7.38;81.29;101864.03;1036214;28;20846;-76
2022/05/04 02:08:24;;;;;;;11.85;4.85;;;;;;;7.42;80.84;101868.03;1036876;28;20367;-75
2022/05/04 02:08:57;;;;;;;14.82;5.90;;;;;;;7.39;80.62;101860.38;1035850;28;20690;-76
2022/05/04 02:09:29;;;;;;;9.55;4.82;;;;;;;7.42;79.97;101862.72;1036632;28;20312;-76
2022/05/04 02:10:02;;;;;;;12.95;5.70;;;;;;;7.46;80.20;101856.06;1036077;28;20304;-76
2022/05/04 02:10:34;;;;;;;15.00;7.20;;;;;;;7.46;80.53;101871.16;1036740;28;20308;-76
2022/05/04 02:11:05;;;;;;;16.52;5.47;;;;;;;7.33;80.50;101861.06;1040424;28;20307;-76
2022/05/04 02:11:37;;;;;;;11.70;5.65;;;;;;;7.44;81.30;101863.38;1040883;28;20299;-76
2022/05/04 02:12:09;;;;;;;14.45;6.03;;;;;;;7.42;80.35;101858.25;1039607;28;20310;-76
2022/05/04 02:12:41;;;;;;;11.40;5.32;;;;;;;7.13;81.53;101866.75;1035711;28;20443;-76
2022/05/04 02:13:12;;;;;;;9.98;6.07;;;;;;;7.02;81.41;101861.78;1028535;28;20301;-76
2022/05/04 02:13:50;;;;;;;12.13;6.68;;;;;;;7.20;82.26;101866.06;1030071;28;20286;-76
2022/05/04 02:14:22;;;;;;;11.88;5.20;;;;;;;7.21;81.92;101868.56;1033216;28;20318;-76
2022/05/04 02:14:53;;;;;;;9.88;5.80;;;;;;;7.02;82.77;101869.72;1038382;28;20777;-76
2022/05/04 02:15:25;;;;;;;10.35;6.03;;;;;;;7.09;83.40;101876.00;1044460;28;20279;-76
2022/05/04 02:15:56;;;;;;;10.65;6.63;;;;;;;7.22;83.83;101875.50;1044381;28;20307;-76
2022/05/04 02:16:31;;;;;;;16.50;6.03;;;;;;;7.23;83.22;101871.88;1044283;28;20322;-77
2022/05/04 02:17:03;;;;;;;15.45;5.78;;;;;;;7.19;83.09;101869.72;1044115;28;20291;-76
2022/05/04 02:17:35;;;;;;;15.18;6.20;;;;;;;7.18;83.77;101878.66;1044198;28;20295;-77
2022/05/04 02:18:07;;;;;;;19.65;5.43;;;;;;;7.15;83.21;101865.75;1039927;28;20288;-76
2022/05/04 02:18:38;;;;;;;13.90;5.93;;;;;;;7.06;82.51;101868.41;1040802;28;20291;-76
2022/05/04 02:19:10;;;;;;;13.23;6.03;;;;;;;7.11;82.17;101863.41;1041904;28;20295;-76
2022/05/04 02:19:41;;;;;;;13.50;5.70;;;;;;;7.03;82.68;101866.09;1044116;28;20311;-76
2022/05/04 02:20:13;;;;;;;18.92;6.72;;;;;;;7.11;82.14;101868.72;1040306;28;20677;-76
2022/05/04 02:20:44;;;;;;;9.20;5.78;;;;;;;7.21;82.75;101868.56;1037801;28;20714;-76
2022/05/04 02:21:16;;;;;;;12.13;6.15;;;;;;;7.27;83.12;101873.19;1040093;28;20296;-76
2022/05/04 02:21:48;;;;;;;11.75;6.20;;;;;;;7.28;82.93;101868.69;1040676;28;20307;-76
2022/05/04 02:22:19;;;;;;;15.68;6.43;;;;;;;7.22;83.12;101867.56;1044072;28;20307;-76
2022/05/04 02:22:51;;;;;;;13.13;5.43;;;;;;;7.27;82.61;101869.69;1039846;28;20319;-76
2022/05/04 02:23:23;;;;;;;20.05;6.05;;;;;;;7.19;82.42;101867.06;1040193;28;20385;-76
2022/05/04 02:23:55;;;;;;;18.52;6.45;;;;;;;7.17;82.84;101866.41;1037480;28;20296;-76
2022/05/04 02:24:26;;;;;;;13.45;6.15;;;;;;;7.23;81.59;101860.44;1040604;28;20307;-77
2022/05/04 02:24:58;;;;;;;12.27;5.93;;;;;;;7.02;82.09;101859.13;1044362;28;20301;-76
2022/05/04 02:25:29;;;;;;;11.75;6.25;;;;;;;6.87;82.61;101868.78;1041722;28;20308;-76
2022/05/04 02:26:02;;;;;;;8.68;5.45;;;;;;;7.01;83.60;101862.78;1039817;28;20296;-76
2022/05/04 02:26:33;;;;;;;13.73;5.55;;;;;;;6.95;84.00;101868.75;1039958;28;20299;-76
2022/05/04 02:27:05;;;;;;;16.10;8.15;;;;;;;7.03;83.65;101871.38;1040845;28;20327;-76
2022/05/04 02:27:37;;;;;;;12.68;6.97;;;;;;;7.12;84.06;101870.41;1044026;28;20314;-76
2022/05/04 02:28:08;;;;;;;13.13;6.85;;;;;;;7.18;83.69;101870.72;1044207;28;20279;-76
2022/05/04 02:28:40;;;;;;;14.00;6.55;;;;;;;7.12;83.82;101859.81;1041868;28;20292;-77
2022/05/04 02:29:12;;;;;;;12.82;6.50;;;;;;;7.16;84.19;101867.41;1039949;28;20296;-77
2022/05/04 02:29:43;;;;;;;11.18;6.45;;;;;;;7.20;83.58;101866.06;1036317;28;20802;-77
2022/05/04 02:30:15;;;;;;;29.60;7.78;;;;;;;7.20;83.84;101863.44;1040133;28;20280;-76
2022/05/04 02:30:48;;;;;;;19.92;8.43;;;;;;;7.15;83.61;101863.13;1039462;28;20721;-76
2022/05/04 02:31:19;;;;;;;22.67;7.97;;;;;;;7.17;83.50;101867.25;1040634;28;20300;-75
2022/05/04 02:31:51;;;;;;;25.33;8.55;;;;;;;7.19;83.27;101865.25;1044249;28;20295;-76
2022/05/04 02:32:23;;;;;;;18.58;7.45;;;;;;;7.10;83.43;101861.78;1044189;28;20322;-76
2022/05/04 02:32:54;;;;;;;24.20;7.60;;;;;;;6.98;84.29;101862.28;1039736;28;20304;-76
2022/05/04 02:33:26;;;;;;;18.02;7.75;;;;;;;7.16;83.85;101864.75;1040203;28;20284;-76